Latest Weather Observations for Victoria River Downs

IDD60801

Issued at 6:01 pm CST Friday 20 October 2017 (issued every 30 minutes, with the page automatically refreshed every 10 minutes)

About weather observations | Map of weather stations | Latest weather observations for NT | Other Formats
Station Details ID: 014825 Name: VICTORIA RIVER DOWNS Lat: -16.40 Lon: 131.01 Height: 88.5 m
Data from the previous 72 hours. | See also: Recent months at Victoria River Downs
Date/Time
CST
Temp
°C
App
Temp
°C
Dew
Point
°C
Rel
Hum
%
Delta-T
°C
Wind Press
QNH
hPa
Press
MSL
hPa
Rain since
9am
mm
Dir  Spd
km/h
Gust
km/h
Spd
kts
Gust
kts
20/06:00pm 37.7 34.0 11.6 21 15.7 E 22 33 12 18 1008.1 1007.4 3.2
20/05:30pm 37.8 35.7 11.0 20 16.0 SE 13 20 7 11 1007.9 - 3.2
20/05:00pm 38.1 34.7 11.2 20 16.1 ESE 20 37 11 20 1007.8 - 3.2
20/04:30pm 37.9 35.5 13.8 23 14.9 E 19 28 10 15 1007.9 - 3.2
20/04:00pm 37.3 37.9 15.7 27 13.7 S 7 11 4 6 1008.2 - 3.2
20/03:30pm 36.2 36.8 15.9 30 12.9 N 7 9 4 5 1009.0 - 3.2
20/03:15pm 35.4 37.5 18.0 35 11.3 WSW 4 6 2 3 1009.4 - 3.2
20/03:00pm 33.0 37.6 22.4 53 7.3 W 2 6 1 3 1009.7 1009.2 3.2
20/02:30pm 30.5 33.0 21.8 59 5.9 SW 11 17 6 9 1010.1 - 3.2
20/02:00pm 33.6 36.9 20.0 44 9.1 ESE 2 6 1 3 1010.7 - 3.0
20/01:30pm 29.7 32.2 21.1 60 5.8 N 9 19 5 10 1011.0 - 3.0
20/01:20pm 29.6 27.1 17.1 47 7.9 NE 26 39 14 21 1011.8 - 1.2
20/01:14pm 29.6 27.5 17.1 47 7.9 ENE 24 39 13 21 1011.8 - 1.2
20/01:00pm 36.0 35.2 15.2 29 13.1 SSE 13 17 7 9 1010.9 - 0.0
20/12:30pm 36.3 35.4 14.9 28 13.4 E 13 19 7 10 1011.3 - 0.0
20/12:00pm 36.5 37.2 15.6 29 13.2 ENE 6 22 3 12 1011.9 1011.3 0.0
20/11:30am 35.7 37.1 17.9 35 11.6 SSW 7 13 4 7 1012.4 - 0.0
20/11:00am 34.8 36.4 19.2 39 10.3 SW 9 11 5 6 1012.7 - 0.0
20/10:30am 33.6 35.8 19.3 43 9.4 NNE 6 11 3 6 1012.9 - 0.0
20/10:00am 33.1 34.9 19.6 45 8.9 NNW 9 19 5 10 1013.0 - 0.0
20/09:30am 31.9 33.2 20.2 50 7.8 NW 13 17 7 9 1012.9 - 0.0
20/09:00am 30.9 32.5 20.8 55 6.8 NW 13 19 7 10 1012.8 1012.0 0.0
20/08:30am 30.2 31.2 21.0 58 6.2 NNW 17 26 9 14 1012.6 - 0.0
20/08:00am 29.4 31.6 20.5 58 5.9 NNW 9 19 5 10 1012.2 - 0.0
20/07:30am 28.6 31.0 20.1 60 5.6 NW 7 11 4 6 1011.8 - 0.0
20/07:00am 27.7 30.1 20.0 63 5.0 NW 7 13 4 7 1011.2 - 0.0
20/06:30am 26.1 27.4 16.1 54 6.2 NNW 4 9 2 5 1010.7 - 0.0
20/06:00am 25.3 27.6 16.7 59 5.3 CALM 0 0 0 0 1010.3 1009.7 0.0
20/05:30am 24.9 26.4 14.7 53 6.1 CALM 0 0 0 0 1010.0 - 0.0
20/05:00am 25.3 25.8 15.6 55 5.9 ENE 7 9 4 5 1009.6 - 0.0
20/04:30am 26.2 26.7 15.6 52 6.5 ENE 7 7 4 4 1009.4 - 0.0
20/04:00am 26.6 25.7 12.6 42 8.2 NE 9 11 5 6 1009.3 - 0.0
20/03:30am 27.0 25.9 10.7 36 9.2 ENE 7 9 4 5 1009.0 - 0.0
20/03:00am 27.9 25.9 8.7 30 10.6 NNE 9 9 5 5 1008.9 1008.4 0.0
20/02:30am 28.7 26.9 7.9 27 11.3 NE 7 11 4 6 1008.9 - 0.0
20/02:00am 29.8 27.6 9.3 28 11.5 N 11 15 6 8 1008.8 - 0.0
20/01:30am 26.6 24.9 9.9 35 9.3 E 9 11 5 6 1008.6 - 0.0
20/01:00am 27.4 25.8 10.2 34 9.7 E 9 11 5 6 1008.8 - 0.0
20/12:30am 26.3 25.6 12.0 41 8.2 E 7 11 4 6 1009.0 - 0.0
20/12:00am 28.8 28.2 13.5 39 9.1 SE 9 15 5 8 1009.2 1008.6 0.0
 
Date/Time
CST
Temp
°C
App
Temp
°C
Dew
Point
°C
Rel
Hum
%
Delta-T
°C
Wind Press
QNH
hPa
Press
MSL
hPa
Rain since
9am
mm
Dir  Spd
km/h
Gust
km/h
Spd
kts
Gust
kts
19/11:30pm 27.7 27.9 14.7 45 7.9 SE 7 9 4 5 1009.3 - 0.0
19/11:00pm 28.3 28.2 13.8 41 8.7 SE 7 11 4 6 1009.3 - 0.0
19/10:30pm 28.5 28.9 14.7 43 8.4 S 6 7 3 4 1009.0 - 0.0
19/10:00pm 29.1 30.9 15.6 44 8.3 CALM 0 0 0 0 1008.7 - 0.0
19/09:30pm 29.6 31.9 16.8 46 8.1 CALM 0 0 0 0 1008.4 - 0.0
19/09:00pm 30.5 29.8 11.9 31 10.9 NNE 7 7 4 4 1008.0 1007.4 0.0
19/08:30pm 31.1 30.4 11.5 30 11.4 NNE 6 7 3 4 1007.8 - 0.0
19/08:00pm 32.1 31.8 11.3 28 12.2 SE 4 6 2 3 1007.4 - 0.0
19/07:30pm 33.7 33.4 11.5 26 13.1 SE 4 6 2 3 1007.1 - 0.0
19/07:00pm 35.7 34.6 10.7 22 14.7 ENE 7 9 4 5 1006.7 - 0.0
19/06:30pm 37.4 35.6 10.7 20 15.8 ENE 11 15 6 8 1006.2 - 0.0
19/06:00pm 38.6 36.2 10.0 18 16.9 E 13 17 7 9 1005.7 1005.0 0.0
19/05:30pm 39.1 36.2 9.6 17 17.3 ENE 15 22 8 12 1005.5 - 0.0
19/05:00pm 39.6 37.6 10.0 17 17.5 E 11 19 6 10 1005.2 - 0.0
19/04:30pm 39.7 38.1 10.1 17 17.5 SW 9 15 5 8 1005.1 - 0.0
19/04:00pm 39.1 37.2 10.4 18 17.0 ESE 11 19 6 10 1005.4 - 0.0
19/03:30pm 38.4 35.8 10.7 19 16.5 ENE 15 22 8 12 1005.7 - 0.0
19/03:00pm 39.2 37.9 11.3 19 16.8 S 9 11 5 6 1006.0 1005.5 0.0
19/02:30pm 38.2 36.7 12.0 21 15.9 E 11 24 6 13 1006.5 - 0.0
19/02:00pm 37.9 37.1 11.8 21 15.7 N 7 15 4 8 1006.9 - 0.0
19/01:30pm 37.5 35.8 13.5 24 14.8 NE 15 24 8 13 1007.3 - 0.0
19/01:00pm 37.8 37.4 16.1 27 13.9 NW 13 24 7 13 1007.9 - 0.0
19/12:30pm 36.7 36.7 15.2 27 13.5 NW 9 17 5 9 1008.7 - 0.0
19/12:00pm 35.2 35.3 17.4 34 11.5 N 13 17 7 9 1009.1 1008.7 0.0
19/11:30am 35.3 36.0 18.8 37 10.9 NNW 13 19 7 10 1009.7 - 0.0
19/11:00am 34.2 35.4 19.1 41 10.0 NNE 11 19 6 10 1010.2 - 0.0
19/10:30am 34.0 35.6 20.0 43 9.3 N 11 17 6 9 1010.2 - 0.0
19/10:00am 33.0 34.5 20.5 47 8.4 NNW 13 20 7 11 1010.2 - 0.0
19/09:30am 32.5 34.6 21.0 50 7.7 NNW 11 19 6 10 1010.2 - 0.0
19/09:00am 31.8 34.1 21.3 53 7.1 WNW 11 15 6 8 1010.2 1009.5 0.0
19/08:30am 31.2 33.8 20.5 53 7.1 W 7 13 4 7 1010.0 - 0.0
19/08:00am 29.5 28.9 12.4 35 10.1 WNW 7 9 4 5 1009.8 - 0.0
19/07:30am 27.1 26.0 10.7 35 9.3 NNW 7 9 4 5 1009.2 - 0.0
19/07:00am 25.2 25.4 10.6 40 8.2 CALM 0 7 0 4 1008.7 - 0.0
19/06:30am 24.6 24.7 10.1 40 8.0 CALM 0 0 0 0 1008.4 - 0.0
19/06:00am 25.8 24.3 9.2 35 9.1 ENE 7 9 4 5 1007.7 1007.1 0.0
19/05:30am 25.7 24.1 10.3 38 8.6 SE 9 13 5 7 1007.5 - 0.0
19/05:00am 25.1 23.5 10.2 39 8.3 E 9 13 5 7 1006.9 - 0.0
19/04:30am 23.4 23.7 10.8 45 7.0 CALM 0 4 0 2 1006.7 - 0.0
19/04:00am 23.9 23.7 9.1 39 8.0 CALM 0 0 0 0 1006.3 - 0.0
19/03:30am 25.5 24.2 9.3 36 8.9 SSE 6 13 3 7 1006.4 - 0.0
19/03:00am 25.0 24.1 10.5 40 8.1 NNE 6 9 3 5 1006.2 1005.6 0.0
19/02:30am 24.7 22.1 9.4 38 8.4 NW 13 17 7 9 1006.3 - 0.0
19/02:00am 25.3 25.6 13.5 48 6.9 SSW 4 9 2 5 1006.3 - 0.0
19/01:30am 25.2 25.4 10.6 40 8.2 CALM 0 0 0 0 1006.6 - 0.0
19/01:00am 26.8 25.5 11.3 38 8.8 S 9 11 5 6 1007.0 - 0.0
19/12:30am 25.2 25.2 9.9 38 8.5 CALM 0 0 0 0 1007.1 - 0.0
19/12:00am 26.1 25.6 10.7 38 8.7 S 4 6 2 3 1007.2 1006.7 0.0
 
Date/Time
CST
Temp
°C
App
Temp
°C
Dew
Point
°C
Rel
Hum
%
Delta-T
°C
Wind Press
QNH
hPa
Press
MSL
hPa
Rain since
9am
mm
Dir  Spd
km/h
Gust
km/h
Spd
kts
Gust
kts
18/11:30pm 27.0 27.5 11.5 38 8.9 CALM 0 2 0 1 1007.4 - 0.0
18/11:00pm 27.6 27.2 11.2 36 9.4 SW 4 9 2 5 1007.5 - 0.0
18/10:30pm 27.8 27.6 9.1 31 10.3 CALM 0 0 0 0 1007.4 - 0.0
18/10:00pm 28.0 27.7 8.8 30 10.6 CALM 0 0 0 0 1007.1 - 0.0
18/09:30pm 28.8 28.6 9.0 29 11.0 CALM 0 0 0 0 1006.8 - 0.0
18/09:00pm 29.9 29.8 9.4 28 11.5 CALM 0 4 0 2 1006.5 1005.8 0.0
18/08:30pm 30.8 29.9 7.9 24 12.6 SE 2 7 1 4 1006.1 - 0.0
18/08:00pm 33.6 31.9 8.3 21 14.2 ESE 7 9 4 5 1005.7 - 0.0
18/07:30pm 34.6 32.7 7.6 19 15.1 ESE 7 9 4 5 1005.2 - 0.0
18/07:00pm 36.0 33.6 7.1 17 16.1 SE 9 11 5 6 1004.8 - 0.0
18/06:30pm 37.2 34.8 7.2 16 16.8 SE 9 13 5 7 1004.6 - 0.0
18/06:00pm 38.5 35.9 6.3 14 18.0 S 9 13 5 7 1004.2 1003.4 0.0
18/05:30pm 38.8 36.9 7.5 15 17.8 SE 7 11 4 6 1004.0 - 0.0
18/05:00pm 38.6 35.5 7.4 15 17.7 SE 13 17 7 9 1004.0 - 0.0
18/04:30pm 39.9 37.6 7.4 14 18.5 ENE 9 17 5 9 1003.9 - 0.0
18/04:00pm 39.5 36.7 7.1 14 18.4 NE 11 22 6 12 1004.2 - 0.0
18/03:30pm 39.1 36.6 9.6 17 17.3 ESE 13 20 7 11 1004.5 - 0.0
18/03:00pm 39.6 37.3 9.1 16 17.9 ENE 11 26 6 14 1004.7 1004.1 0.0
18/02:30pm 38.7 36.3 10.1 18 16.9 NNE 13 26 7 14 1005.0 - 0.0
18/02:00pm 38.7 36.8 11.7 20 16.3 E 13 26 7 14 1005.7 - 0.0
18/01:30pm 39.0 36.1 9.5 17 17.3 E 15 28 8 15 1006.1 - 0.0
18/01:00pm 38.8 36.3 11.0 19 16.6 ESE 15 28 8 15 1006.7 - 0.0
18/12:30pm 37.8 36.1 12.4 22 15.4 ENE 13 26 7 14 1007.4 - 0.0
18/12:00pm 37.5 35.6 14.1 24 14.6 NE 17 28 9 15 1007.9 1007.4 0.0
18/11:30am 37.0 36.2 16.0 28 13.4 NE 15 20 8 11 1008.5 - 0.0
18/11:00am 35.5 35.1 17.2 33 11.8 NE 15 26 8 14 1008.9 - 0.0
18/10:30am 34.5 33.6 16.8 34 11.3 NE 17 28 9 15 1009.2 - 0.0
18/10:00am 33.9 33.3 17.6 38 10.5 NNE 17 24 9 13 1009.4 - 0.0
18/09:30am 32.7 32.2 17.7 40 9.7 NE 17 24 9 13 1009.5 - 0.0
18/09:00am 31.2 31.1 17.9 45 8.6 NE 15 20 8 11 1009.4 1008.8 0.0
18/08:30am 30.3 30.4 17.4 46 8.2 NNE 13 26 7 14 1009.3 - 0.0
18/08:00am 29.8 29.1 17.3 47 7.9 NE 17 24 9 13 1008.8 - 0.0
18/07:30am 27.6 28.5 16.2 49 7.1 NNE 6 11 3 6 1008.6 - 0.0
18/07:00am 25.2 24.7 12.8 46 7.2 NNE 7 7 4 4 1008.2 - 0.0
18/06:30am 24.0 24.1 10.3 42 7.6 CALM 0 0 0 0 1007.7 - 0.0
18/06:00am 24.4 24.7 11.0 43 7.5 CALM 0 0 0 0 1007.5 1006.8 0.0
18/05:30am 24.5 24.2 10.0 40 8.0 N 2 6 1 3 1007.1 - 0.0
18/05:00am 24.6 23.3 9.3 38 8.3 WNW 6 6 3 3 1006.7 - 0.0
18/04:30am 25.3 24.3 10.4 39 8.3 SE 6 7 3 4 1006.4 - 0.0
18/04:00am 24.8 23.5 9.9 39 8.2 NW 7 11 4 6 1006.1 - 0.0
18/03:30am 25.8 24.6 11.6 41 8.1 ESE 9 9 5 5 1005.8 - 0.0
18/03:00am 24.2 23.5 11.5 45 7.2 ESE 6 7 3 4 1005.8 1005.2 0.0
18/02:30am 24.0 23.8 9.2 39 8.0 CALM 0 0 0 0 1005.9 - 0.0
18/02:00am 24.3 22.7 7.9 35 8.7 WSW 6 7 3 4 1005.7 - 0.0
18/01:30am 25.0 23.4 8.1 34 9.0 W 6 7 3 4 1005.8 - 0.0
18/01:00am 25.7 23.9 7.8 32 9.6 NW 7 9 4 5 1006.1 - 0.0
18/12:30am 25.5 24.8 7.1 31 9.7 CALM 0 0 0 0 1006.2 - 0.0
18/12:00am 26.1 25.6 7.7 31 9.9 CALM 0 0 0 0 1006.3 1005.7 0.0
 
Date/Time
CST
Temp
°C
App
Temp
°C
Dew
Point
°C
Rel
Hum
%
Delta-T
°C
Wind Press
QNH
hPa
Press
MSL
hPa
Rain since
9am
mm
Dir  Spd
km/h
Gust
km/h
Spd
kts
Gust
kts
17/11:30pm 26.9 25.7 10.2 35 9.4 SSE 7 11 4 6 1006.4 - 0.0
17/11:00pm 26.9 26.4 7.9 30 10.2 CALM 0 0 0 0 1006.3 - 0.0
17/10:30pm 27.7 26.4 7.5 28 10.9 S 4 6 2 3 1006.3 - 0.0
17/10:00pm 28.9 28.4 8.0 27 11.4 CALM 0 0 0 0 1006.0 - 0.0
17/09:30pm 29.7 29.3 8.2 26 11.8 CALM 0 0 0 0 1005.8 - 0.0
17/09:00pm 30.1 29.6 7.9 25 12.2 CALM 0 0 0 0 1005.4 1004.7 0.0
17/08:30pm 31.2 30.9 8.8 25 12.5 CALM 0 0 0 0 1005.1 - 0.0
17/08:00pm 32.7 30.8 7.5 21 13.9 SW 7 7 4 4 1004.6 - 0.0
17/07:30pm 34.2 31.7 6.5 18 15.2 SSW 9 9 5 5 1004.2 - 0.0
17/07:00pm 35.3 32.8 3.8 14 16.6 SSW 6 7 3 4 1003.8 - 0.0
17/06:30pm 37.5 34.9 4.4 13 17.8 SSW 7 11 4 6 1003.4 - 0.0

Other Formats:

Comma delimited format used in spreadsheet applications
http://www.bom.gov.au/fwo/IDD60801/IDD60801.94232.axf

JavaScript Object Notation format (JSON) in row-major order
http://www.bom.gov.au/fwo/IDD60801/IDD60801.94232.json